CheckWX is a tool to help pilots better visualize weather data.  It is not intended as a substitute for an official pre-flight weather briefing.

13:33:16 UTC

KGGG TAF
East Texas Regional Airport
Longview, Texas, USA
KGGG 181143Z 1812/1912 17007KT P6SM SCT015 TEMPO 1812/1814 BKN015 FM181600 19010KT P6SM SCT050 FM190000 17007KT P6SM FEW250

Aug-18@
12:00 UTC

Aug-18 @ 12:00 UTC

Aug-18@
16:00 UTC

Aug-18 @ 16:00 UTC

KGGG 181143Z 1812/1912 17007KT P6SM SCT015
Wind
  • 170° at 7 KTS
Cloud Levels
  • Scattered at 1,500' AGL

Aug-18@
12:00 UTC

Aug-18 @ 12:00 UTC

Aug-18@
14:00 UTC

Aug-18 @ 14:00 UTC

TEMPO 1812/1814 BKN015

Temporary

Temporary Changes expected for less than half the time period

Cloud Levels
  • Broken at 1,500' AGL

Aug-18@
16:00 UTC

Aug-18 @ 16:00 UTC

Aug-19@
00:00 UTC

Aug-19 @ 00:00 UTC

FM181600 19010KT P6SM SCT050

From

From Standard forecast or significant change

Wind
  • 190° at 10 KTS
Cloud Levels
  • Scattered at 5,000' AGL

Aug-19@
00:00 UTC

Aug-19 @ 00:00 UTC

Aug-19@
12:00 UTC

Aug-19 @ 12:00 UTC

FM190000 17007KT P6SM FEW250

From

From Standard forecast or significant change

Wind
  • 170° at 7 KTS
Cloud Levels
  • Few at 25,000' AGL